Wetterdaten: Dienstag, 02.02.2010
Datum Zeit Temp. A. Feuchte A. Luftdruck Regen Wind Richtung Richtung Sonnenschein UV Solar Windben
02.02.2010 00:00 -1,6 C 75 % 1012,9 hPa 0,0 mm 3,2 km/h (1 Bft) W-NW 292 0 min 0 UV-I 0 W/m 11,3 km/h (2 Bft)
02.02.2010 00:10 -1,6 C 74 % 1013,1 hPa 0,0 mm 1,6 km/h (1 Bft) NW 315 0 min 0 UV-I 0 W/m 9,7 km/h (2 Bft)
02.02.2010 00:20 -1,6 C 74 % 1013,1 hPa 0,0 mm 1,6 km/h (1 Bft) W-NW 292 0 min 0 UV-I 0 W/m 4,8 km/h (1 Bft)
02.02.2010 00:30 -1,6 C 74 % 1013,3 hPa 0,0 mm 1,6 km/h (1 Bft) W-NW 292 0 min 0 UV-I 0 W/m 4,8 km/h (1 Bft)
02.02.2010 00:40 -1,7 C 75 % 1013,3 hPa 0,0 mm 1,6 km/h (1 Bft) W 270 0 min 0 UV-I 0 W/m 6,4 km/h (2 Bft)
02.02.2010 00:50 -1,7 C 75 % 1013,5 hPa 0,0 mm 3,2 km/h (1 Bft) W 270 0 min 0 UV-I 0 W/m 8,0 km/h (2 Bft)
02.02.2010 01:00 -1,7 C 75 % 1013,5 hPa 0,0 mm 3,2 km/h (1 Bft) W 270 0 min 0 UV-I 0 W/m 11,3 km/h (2 Bft)
02.02.2010 01:10 -1,7 C 75 % 1013,5 hPa 0,0 mm 1,6 km/h (1 Bft) W 270 0 min 0 UV-I 0 W/m 8,0 km/h (2 Bft)
02.02.2010 01:20 -1,7 C 75 % 1013,4 hPa 0,0 mm 0,0 km/h (0 Bft) W 270 0 min 0 UV-I 0 W/m 4,8 km/h (1 Bft)
02.02.2010 01:30 -1,8 C 75 % 1013,3 hPa 0,0 mm 0,0 km/h (0 Bft) W 270 0 min 0 UV-I 0 W/m 4,8 km/h (1 Bft)
02.02.2010 01:40 -1,9 C 75 % 1013,2 hPa 0,0 mm 0,0 km/h (0 Bft) W 270 0 min 0 UV-I 0 W/m 3,2 km/h (1 Bft)
02.02.2010 01:50 -2,0 C 75 % 1013,1 hPa 0,0 mm 0,0 km/h (0 Bft) W 270 0 min 0 UV-I 0 W/m 4,8 km/h (1 Bft)
02.02.2010 02:00 -2,1 C 75 % 1013,1 hPa 0,0 mm 0,0 km/h (0 Bft) W 270 0 min 0 UV-I 0 W/m 3,2 km/h (1 Bft)
02.02.2010 02:10 -2,3 C 75 % 1013,3 hPa 0,0 mm 0,0 km/h (0 Bft) W 270 0 min 0 UV-I 0 W/m 1,6 km/h (1 Bft)
02.02.2010 02:20 -2,5 C 75 % 1013,3 hPa 0,0 mm 0,0 km/h (0 Bft) W 270 0 min 0 UV-I 0 W/m 1,6 km/h (1 Bft)
02.02.2010 02:30 -2,7 C 76 % 1013,5 hPa 0,0 mm 0,0 km/h (0 Bft) W 270 0 min 0 UV-I 0 W/m 1,6 km/h (1 Bft)
02.02.2010 02:40 -2,8 C 77 % 1013,5 hPa 0,0 mm 0,0 km/h (0 Bft) W 270 0 min 0 UV-I 0 W/m 3,2 km/h (1 Bft)
02.02.2010 02:50 -2,9 C 78 % 1013,6 hPa 0,0 mm 1,6 km/h (1 Bft) W-SW 247 0 min 0 UV-I 0 W/m 6,4 km/h (2 Bft)
02.02.2010 03:00 -2,9 C 79 % 1013,5 hPa 0,0 mm 0,0 km/h (0 Bft) W-SW 247 0 min 0 UV-I 0 W/m 3,2 km/h (1 Bft)
02.02.2010 03:10 -2,9 C 79 % 1013,5 hPa 0,0 mm 0,0 km/h (0 Bft) SW 225 0 min 0 UV-I 0 W/m 6,4 km/h (2 Bft)
02.02.2010 03:20 -2,9 C 79 % 1013,3 hPa 0,0 mm 1,6 km/h (1 Bft) SW 225 0 min 0 UV-I 0 W/m 8,0 km/h (2 Bft)
02.02.2010 03:30 -2,9 C 79 % 1013,2 hPa 0,0 mm 1,6 km/h (1 Bft) SW 225 0 min 0 UV-I 0 W/m 8,0 km/h (2 Bft)
02.02.2010 03:40 -2,9 C 79 % 1013,3 hPa 0,0 mm 1,6 km/h (1 Bft) W-SW 247 0 min 0 UV-I 0 W/m 4,8 km/h (1 Bft)
02.02.2010 03:50 -2,9 C 79 % 1013,3 hPa 0,0 mm 0,0 km/h (0 Bft) W-SW 247 0 min 0 UV-I 0 W/m 3,2 km/h (1 Bft)
02.02.2010 04:00 -3,0 C 79 % 1013,3 hPa 0,0 mm 0,0 km/h (0 Bft) W-SW 247 0 min 0 UV-I 0 W/m 4,8 km/h (1 Bft)
02.02.2010 04:10 -3,0 C 79 % 1013,3 hPa 0,0 mm 0,0 km/h (0 Bft) W-NW 292 0 min 0 UV-I 0 W/m 3,2 km/h (1 Bft)
02.02.2010 04:20 -3,1 C 79 % 1013,3 hPa 0,0 mm 0,0 km/h (0 Bft) SW 225 0 min 0 UV-I 0 W/m 4,8 km/h (1 Bft)
02.02.2010 04:30 -3,1 C 79 % 1013,2 hPa 0,0 mm 1,6 km/h (1 Bft) SW 225 0 min 0 UV-I 0 W/m 4,8 km/h (1 Bft)
02.02.2010 04:40 -3,1 C 79 % 1013,1 hPa 0,0 mm 0,0 km/h (0 Bft) SW 225 0 min 0 UV-I 0 W/m 4,8 km/h (1 Bft)
02.02.2010 04:50 -3,2 C 80 % 1013,2 hPa 0,0 mm 1,6 km/h (1 Bft) SW 225 0 min 0 UV-I 0 W/m 4,8 km/h (1 Bft)
02.02.2010 05:00 -3,2 C 80 % 1013,2 hPa 0,0 mm 1,6 km/h (1 Bft) SW 225 0 min 0 UV-I 0 W/m 6,4 km/h (2 Bft)
02.02.2010 05:10 -3,2 C 80 % 1013,2 hPa 0,0 mm 1,6 km/h (1 Bft) S-SW 202 0 min 0 UV-I 0 W/m 6,4 km/h (2 Bft)
02.02.2010 05:20 -3,2 C 80 % 1012,9 hPa 0,0 mm 1,6 km/h (1 Bft) SW 225 0 min 0 UV-I 0 W/m 6,4 km/h (2 Bft)
02.02.2010 05:30 -3,3 C 81 % 1012,9 hPa 0,0 mm 1,6 km/h (1 Bft) SW 225 0 min 0 UV-I 0 W/m 8,0 km/h (2 Bft)
02.02.2010 05:40 -3,2 C 81 % 1012,7 hPa 0,0 mm 1,6 km/h (1 Bft) SW 225 0 min 0 UV-I 0 W/m 8,0 km/h (2 Bft)
02.02.2010 05:50 -3,2 C 81 % 1012,4 hPa 0,0 mm 1,6 km/h (1 Bft) SW 225 0 min 0 UV-I 0 W/m 6,4 km/h (2 Bft)
02.02.2010 06:00 -3,1 C 82 % 1012,2 hPa 0,0 mm 1,6 km/h (1 Bft) SW 225 0 min 0 UV-I 0 W/m 9,7 km/h (2 Bft)
02.02.2010 06:10 -3,0 C 82 % 1012,2 hPa 0,0 mm 1,6 km/h (1 Bft) SW 225 0 min 0 UV-I 0 W/m 6,4 km/h (2 Bft)
02.02.2010 06:20 -2,9 C 82 % 1012,0 hPa 0,0 mm 1,6 km/h (1 Bft) SW 225 0 min 0 UV-I 0 W/m 11,3 km/h (2 Bft)
02.02.2010 06:30 -2,8 C 82 % 1011,8 hPa 0,0 mm 1,6 km/h (1 Bft) S-SW 202 0 min 0 UV-I 0 W/m 11,3 km/h (2 Bft)
02.02.2010 06:40 -2,7 C 82 % 1011,7 hPa 0,0 mm 1,6 km/h (1 Bft) S-SW 202 0 min 0 UV-I 0 W/m 8,0 km/h (2 Bft)
02.02.2010 06:50 -2,5 C 83 % 1011,7 hPa 0,0 mm 1,6 km/h (1 Bft) S 180 0 min 0 UV-I 0 W/m 8,0 km/h (2 Bft)
02.02.2010 07:00 -2,4 C 83 % 1011,5 hPa 0,0 mm 1,6 km/h (1 Bft) S-SW 202 0 min 0 UV-I 0 W/m 11,3 km/h (2 Bft)
02.02.2010 07:10 -2,2 C 84 % 1011,2 hPa 0,0 mm 3,2 km/h (1 Bft) SW 225 0 min 0 UV-I 0 W/m 16,1 km/h (3 Bft)
02.02.2010 07:20 -1,9 C 85 % 1010,8 hPa 0,0 mm 3,2 km/h (1 Bft) S-SW 202 0 min 0 UV-I 0 W/m 12,9 km/h (3 Bft)
02.02.2010 07:30 -1,7 C 85 % 1010,8 hPa 0,0 mm 1,6 km/h (1 Bft) SW 225 0 min 0 UV-I 0 W/m 12,9 km/h (3 Bft)
02.02.2010 07:40 -1,6 C 85 % 1010,6 hPa 0,0 mm 4,8 km/h (1 Bft) S-SW 202 0 min 0 UV-I 0 W/m 17,7 km/h (3 Bft)
02.02.2010 07:50 -1,4 C 85 % 1010,5 hPa 0,0 mm 4,8 km/h (1 Bft) SW 225 0 min 0 UV-I 0 W/m 17,7 km/h (3 Bft)
02.02.2010 08:00 -1,1 C 85 % 1010,4 hPa 0,0 mm 4,0 km/h (1 Bft) SW 229 0 min 0 UV-I 0 W/m 6,4 km/h (2 Bft)
02.02.2010 08:10 -0,9 C 84 % 1010,4 hPa 0,0 mm 4,8 km/h (1 Bft) SW 225 0 min 0 UV-I 0 W/m 16,1 km/h (3 Bft)
02.02.2010 08:20 -0,8 C 83 % 1010,1 hPa 0,0 mm 4,8 km/h (1 Bft) W-SW 247 0 min 0 UV-I 9 W/m 20,9 km/h (4 Bft)
02.02.2010 08:30 -0,5 C 82 % 1010,1 hPa 0,0 mm 6,4 km/h (2 Bft) S-SW 202 0 min 0 UV-I 16 W/m 20,9 km/h (4 Bft)
02.02.2010 08:40 -0,2 C 81 % 1009,9 hPa 0,0 mm 8,0 km/h (2 Bft) SW 225 0 min 0 UV-I 19 W/m 24,1 km/h (4 Bft)
02.02.2010 08:50 0,1 C 80 % 1009,8 hPa 0,0 mm 8,0 km/h (2 Bft) SW 225 0 min 0 UV-I 26 W/m 24,1 km/h (4 Bft)
02.02.2010 09:00 0,4 C 79 % 1009,7 hPa 0,0 mm 6,4 km/h (2 Bft) S-SW 202 0 min 0 UV-I 32 W/m 19,3 km/h (3 Bft)
02.02.2010 09:10 0,6 C 78 % 1009,5 hPa 0,0 mm 8,0 km/h (2 Bft) SW 225 0 min 0 UV-I 39 W/m 22,5 km/h (4 Bft)
02.02.2010 09:20 0,7 C 79 % 1009,4 hPa 0,0 mm 8,0 km/h (2 Bft) SW 225 0 min 0 UV-I 56 W/m 29,0 km/h (5 Bft)
02.02.2010 09:30 0,8 C 78 % 1009,1 hPa 0,0 mm 8,0 km/h (2 Bft) SW 225 0 min 0 UV-I 65 W/m 24,1 km/h (4 Bft)
02.02.2010 09:40 1,0 C 79 % 1008,9 hPa 0,0 mm 9,7 km/h (2 Bft) SW 225 0 min 0 UV-I 60 W/m 27,4 km/h (4 Bft)
02.02.2010 09:50 1,1 C 80 % 1008,8 hPa 0,0 mm 11,3 km/h (2 Bft) SW 225 0 min 0 UV-I 63 W/m 30,6 km/h (5 Bft)
02.02.2010 10:00 1,2 C 80 % 1008,5 hPa 0,0 mm 9,7 km/h (2 Bft) SW 225 0 min 0 UV-I 62 W/m 27,4 km/h (4 Bft)
02.02.2010 10:10 1,2 C 81 % 1008,2 hPa 0,0 mm 8,0 km/h (2 Bft) W-SW 247 0 min 0 UV-I 62 W/m 22,5 km/h (4 Bft)
02.02.2010 10:20 1,2 C 81 % 1008,0 hPa 0,0 mm 9,7 km/h (2 Bft) S-SW 202 0 min 0 UV-I 76 W/m 27,4 km/h (4 Bft)
02.02.2010 10:30 1,2 C 81 % 1007,8 hPa 0,0 mm 8,0 km/h (2 Bft) SW 225 0 min 1 UV-I 95 W/m 22,5 km/h (4 Bft)
02.02.2010 10:40 1,3 C 80 % 1007,5 hPa 0,0 mm 9,7 km/h (2 Bft) S-SW 202 0 min 1 UV-I 104 W/m 30,6 km/h (5 Bft)
02.02.2010 10:50 1,3 C 80 % 1007,3 hPa 0,0 mm 8,0 km/h (2 Bft) SW 225 0 min 1 UV-I 114 W/m 24,1 km/h (4 Bft)
02.02.2010 11:00 1,4 C 80 % 1007,1 hPa 0,0 mm 9,7 km/h (2 Bft) W-SW 247 0 min 1 UV-I 116 W/m 24,1 km/h (4 Bft)
02.02.2010 11:10 1,7 C 79 % 1006,9 hPa 0,0 mm 9,7 km/h (2 Bft) SW 225 0 min 1 UV-I 132 W/m 25,7 km/h (4 Bft)
02.02.2010 11:20 1,9 C 78 % 1006,9 hPa 0,0 mm 12,9 km/h (3 Bft) S-SW 202 0 min 1 UV-I 151 W/m 30,6 km/h (5 Bft)
02.02.2010 11:30 2,1 C 77 % 1006,8 hPa 0,0 mm 11,3 km/h (2 Bft) SW 225 0 min 1 UV-I 153 W/m 30,6 km/h (5 Bft)
02.02.2010 11:40 2,2 C 77 % 1006,4 hPa 0,0 mm 9,7 km/h (2 Bft) SW 225 0 min 1 UV-I 149 W/m 24,1 km/h (4 Bft)
02.02.2010 11:50 2,2 C 76 % 1006,3 hPa 0,0 mm 9,7 km/h (2 Bft) SW 225 0 min 1 UV-I 144 W/m 27,4 km/h (4 Bft)
02.02.2010 12:00 2,3 C 76 % 1006,2 hPa 0,0 mm 11,3 km/h (2 Bft) SW 225 0 min 1 UV-I 165 W/m 27,4 km/h (4 Bft)
02.02.2010 12:10 2,4 C 76 % 1006,0 hPa 0,0 mm 11,3 km/h (2 Bft) SW 225 0 min 1 UV-I 167 W/m 27,4 km/h (4 Bft)
02.02.2010 12:20 2,5 C 76 % 1005,8 hPa 0,0 mm 9,7 km/h (2 Bft) S-SW 202 0 min 1 UV-I 142 W/m 27,4 km/h (4 Bft)
02.02.2010 12:30 2,6 C 76 % 1005,5 hPa 0,0 mm 9,7 km/h (2 Bft) SW 225 0 min 1 UV-I 134 W/m 24,1 km/h (4 Bft)
02.02.2010 12:40 2,7 C 75 % 1005,2 hPa 0,0 mm 11,3 km/h (2 Bft) SW 225 0 min 1 UV-I 125 W/m 30,6 km/h (5 Bft)
02.02.2010 12:50 2,7 C 76 % 1004,8 hPa 0,0 mm 11,3 km/h (2 Bft) SW 225 0 min 1 UV-I 130 W/m 25,7 km/h (4 Bft)
02.02.2010 13:00 2,8 C 76 % 1004,5 hPa 0,0 mm 9,7 km/h (2 Bft) SW 225 0 min 1 UV-I 148 W/m 24,1 km/h (4 Bft)
02.02.2010 13:10 2,8 C 76 % 1004,3 hPa 0,0 mm 9,7 km/h (2 Bft) SW 225 0 min 1 UV-I 144 W/m 27,4 km/h (4 Bft)
02.02.2010 13:20 2,9 C 75 % 1004,0 hPa 0,0 mm 11,3 km/h (2 Bft) SW 225 0 min 1 UV-I 144 W/m 25,7 km/h (4 Bft)
02.02.2010 13:30 2,9 C 75 % 1003,8 hPa 0,0 mm 11,3 km/h (2 Bft) SW 225 0 min 1 UV-I 132 W/m 27,4 km/h (4 Bft)
02.02.2010 13:40 2,9 C 75 % 1003,5 hPa 0,0 mm 9,7 km/h (2 Bft) S-SW 202 0 min 1 UV-I 123 W/m 25,7 km/h (4 Bft)
02.02.2010 13:50 2,9 C 75 % 1003,3 hPa 0,0 mm 11,3 km/h (2 Bft) SW 225 0 min 1 UV-I 125 W/m 24,1 km/h (4 Bft)
02.02.2010 14:00 2,9 C 76 % 1003,0 hPa 0,0 mm 11,3 km/h (2 Bft) S-SW 202 0 min 1 UV-I 113 W/m 32,2 km/h (5 Bft)
02.02.2010 14:10 2,9 C 76 % 1002,7 hPa 0,0 mm 9,7 km/h (2 Bft) SW 225 0 min 1 UV-I 105 W/m 25,7 km/h (4 Bft)
02.02.2010 14:20 2,9 C 76 % 1002,5 hPa 0,0 mm 8,0 km/h (2 Bft) SW 225 0 min 1 UV-I 91 W/m 25,7 km/h (4 Bft)
02.02.2010 14:30 2,9 C 76 % 1002,3 hPa 0,0 mm 11,3 km/h (2 Bft) SW 225 0 min 0 UV-I 77 W/m 30,6 km/h (5 Bft)
02.02.2010 14:40 2,9 C 77 % 1002,1 hPa 0,0 mm 9,7 km/h (2 Bft) SW 225 0 min 0 UV-I 65 W/m 24,1 km/h (4 Bft)
02.02.2010 14:50 2,9 C 77 % 1001,9 hPa 0,0 mm 12,9 km/h (3 Bft) SW 225 0 min 0 UV-I 49 W/m 32,2 km/h (5 Bft)
02.02.2010 15:00 2,8 C 78 % 1001,7 hPa 0,0 mm 12,9 km/h (3 Bft) S-SW 202 0 min 0 UV-I 51 W/m 29,0 km/h (5 Bft)
02.02.2010 15:10 2,8 C 79 % 1001,7 hPa 0,0 mm 9,7 km/h (2 Bft) S-SW 202 0 min 0 UV-I 42 W/m 24,1 km/h (4 Bft)
02.02.2010 15:20 2,7 C 81 % 1001,5 hPa 0,0 mm 11,3 km/h (2 Bft) W-SW 247 0 min 0 UV-I 35 W/m 29,0 km/h (5 Bft)
02.02.2010 15:30 2,7 C 82 % 1001,2 hPa 0,0 mm 9,7 km/h (2 Bft) W-SW 247 0 min 0 UV-I 26 W/m 29,0 km/h (5 Bft)
02.02.2010 15:40 2,6 C 83 % 1001,0 hPa 0,3 mm 9,7 km/h (2 Bft) SW 225 0 min 0 UV-I 28 W/m 24,1 km/h (4 Bft)
02.02.2010 15:50 2,6 C 83 % 1000,9 hPa 0,0 mm 11,3 km/h (2 Bft) W-SW 247 0 min 0 UV-I 26 W/m 27,4 km/h (4 Bft)
02.02.2010 16:00 2,7 C 83 % 1000,9 hPa 0,0 mm 12,5 km/h (3 Bft) W-NW 300 0 min 0 UV-I 20 W/m 32,2 km/h (5 Bft)
02.02.2010 16:10 2,6 C 84 % 1000,7 hPa 0,3 mm 11,3 km/h (2 Bft) SW 225 0 min 0 UV-I 18 W/m 30,6 km/h (5 Bft)
02.02.2010 16:20 2,5 C 85 % 1000,5 hPa 0,3 mm 12,9 km/h (3 Bft) SW 225 0 min 0 UV-I 19 W/m 35,4 km/h (5 Bft)
02.02.2010 16:30 2,4 C 85 % 1000,4 hPa 0,0 mm 11,3 km/h (2 Bft) SW 225 0 min 0 UV-I 19 W/m 27,4 km/h (4 Bft)
02.02.2010 16:40 2,4 C 86 % 1000,2 hPa 0,0 mm 14,5 km/h (3 Bft) SW 225 0 min 0 UV-I 14 W/m 32,2 km/h (5 Bft)
02.02.2010 16:50 2,3 C 86 % 1000,1 hPa 0,3 mm 8,0 km/h (2 Bft) W-SW 247 0 min 0 UV-I 11 W/m 27,4 km/h (4 Bft)
02.02.2010 17:00 2,3 C 87 % 999,9 hPa 0,0 mm 8,0 km/h (2 Bft) SW 225 0 min 0 UV-I 5 W/m 27,4 km/h (4 Bft)
02.02.2010 17:10 2,2 C 87 % 999,8 hPa 0,3 mm 11,3 km/h (2 Bft) SW 225 0 min 0 UV-I 0 W/m 27,4 km/h (4 Bft)
02.02.2010 17:20 2,2 C 87 % 999,6 hPa 0,0 mm 12,9 km/h (3 Bft) SW 225 0 min 0 UV-I 0 W/m 32,2 km/h (5 Bft)
02.02.2010 17:30 2,2 C 87 % 999,3 hPa 0,3 mm 9,7 km/h (2 Bft) SW 225 0 min 0 UV-I 0 W/m 33,8 km/h (5 Bft)
02.02.2010 17:40 2,1 C 88 % 999,2 hPa 0,0 mm 11,3 km/h (2 Bft) SW 225 0 min 0 UV-I 0 W/m 29,0 km/h (5 Bft)
02.02.2010 17:50 2,2 C 88 % 999,1 hPa 0,3 mm 11,3 km/h (2 Bft) SW 225 0 min 0 UV-I 0 W/m 37,0 km/h (5 Bft)
02.02.2010 18:00 2,2 C 88 % 999,0 hPa 0,0 mm 9,7 km/h (2 Bft) W-SW 247 0 min 0 UV-I 0 W/m 25,7 km/h (4 Bft)
02.02.2010 18:10 2,2 C 88 % 998,7 hPa 0,0 mm 11,3 km/h (2 Bft) SW 225 0 min 0 UV-I 0 W/m 24,1 km/h (4 Bft)
02.02.2010 18:20 2,2 C 88 % 998,5 hPa 0,0 mm 9,7 km/h (2 Bft) SW 225 0 min 0 UV-I 0 W/m 24,1 km/h (4 Bft)
02.02.2010 18:30 2,2 C 88 % 998,4 hPa 0,3 mm 9,7 km/h (2 Bft) SW 225 0 min 0 UV-I 0 W/m 25,7 km/h (4 Bft)
02.02.2010 18:40 2,3 C 88 % 998,4 hPa 0,0 mm 11,3 km/h (2 Bft) SW 225 0 min 0 UV-I 0 W/m 29,0 km/h (5 Bft)
02.02.2010 18:50 2,3 C 88 % 998,1 hPa 0,3 mm 11,3 km/h (2 Bft) W-SW 247 0 min 0 UV-I 0 W/m 35,4 km/h (5 Bft)
02.02.2010 19:00 2,3 C 88 % 998,0 hPa 0,0 mm 8,0 km/h (2 Bft) SW 225 0 min 0 UV-I 0 W/m 24,1 km/h (4 Bft)
02.02.2010 19:10 2,3 C 88 % 997,7 hPa 0,0 mm 12,9 km/h (3 Bft) SW 225 0 min 0 UV-I 0 W/m 35,4 km/h (5 Bft)
02.02.2010 19:20 2,3 C 89 % 997,5 hPa 0,3 mm 9,7 km/h (2 Bft) S-SW 202 0 min 0 UV-I 0 W/m 22,5 km/h (4 Bft)
02.02.2010 19:30 2,3 C 89 % 997,4 hPa 0,3 mm 11,3 km/h (2 Bft) SW 225 0 min 0 UV-I 0 W/m 25,7 km/h (4 Bft)
02.02.2010 19:40 2,3 C 89 % 997,3 hPa 0,0 mm 8,0 km/h (2 Bft) SW 225 0 min 0 UV-I 0 W/m 20,9 km/h (4 Bft)
02.02.2010 19:50 2,3 C 89 % 997,2 hPa 0,0 mm 8,0 km/h (2 Bft) SW 225 0 min 0 UV-I 0 W/m 20,9 km/h (4 Bft)
02.02.2010 20:00 2,3 C 89 % 997,1 hPa 0,3 mm 9,7 km/h (2 Bft) SW 225 0 min 0 UV-I 0 W/m 27,4 km/h (4 Bft)
02.02.2010 20:10 2,3 C 89 % 996,9 hPa 0,0 mm 8,0 km/h (2 Bft) SW 225 0 min 0 UV-I 0 W/m 22,5 km/h (4 Bft)
02.02.2010 20:20 2,3 C 89 % 996,7 hPa 0,3 mm 9,7 km/h (2 Bft) SW 225 0 min 0 UV-I 0 W/m 27,4 km/h (4 Bft)
02.02.2010 20:30 2,3 C 90 % 996,6 hPa 0,3 mm 8,0 km/h (2 Bft) W-SW 247 0 min 0 UV-I 0 W/m 29,0 km/h (5 Bft)
02.02.2010 20:40 2,3 C 90 % 996,4 hPa 0,0 mm 9,7 km/h (2 Bft) W-SW 247 0 min 0 UV-I 0 W/m 25,7 km/h (4 Bft)
02.02.2010 20:50 2,3 C 90 % 996,4 hPa 0,3 mm 8,0 km/h (2 Bft) W-SW 247 0 min 0 UV-I 0 W/m 19,3 km/h (3 Bft)
02.02.2010 21:00 2,3 C 90 % 996,3 hPa 0,0 mm 8,0 km/h (2 Bft) W-SW 247 0 min 0 UV-I 0 W/m 20,9 km/h (4 Bft)
02.02.2010 21:10 2,3 C 90 % 996,2 hPa 0,3 mm 9,7 km/h (2 Bft) W-SW 247 0 min 0 UV-I 0 W/m 29,0 km/h (5 Bft)
02.02.2010 21:20 2,3 C 90 % 996,0 hPa 0,0 mm 9,7 km/h (2 Bft) W-SW 247 0 min 0 UV-I 0 W/m 29,0 km/h (5 Bft)
02.02.2010 21:30 2,4 C 90 % 996,0 hPa 0,3 mm 8,0 km/h (2 Bft) W-SW 247 0 min 0 UV-I 0 W/m 22,5 km/h (4 Bft)
02.02.2010 21:40 2,4 C 90 % 995,9 hPa 0,0 mm 6,4 km/h (2 Bft) W-SW 247 0 min 0 UV-I 0 W/m 20,9 km/h (4 Bft)
02.02.2010 21:50 2,4 C 90 % 996,0 hPa 0,3 mm 9,7 km/h (2 Bft) W-SW 247 0 min 0 UV-I 0 W/m 22,5 km/h (4 Bft)
02.02.2010 22:00 2,5 C 90 % 996,0 hPa 0,3 mm 10,3 km/h (2 Bft) SW 226 0 min 0 UV-I 0 W/m 16,1 km/h (3 Bft)
02.02.2010 22:10 2,4 C 90 % 995,9 hPa 0,3 mm 9,2 km/h (2 Bft) SW 229 0 min 0 UV-I 0 W/m 24,1 km/h (4 Bft)
02.02.2010 22:20 2,4 C 90 % 996,0 hPa 0,3 mm 9,0 km/h (2 Bft) SW 226 0 min 0 UV-I 0 W/m 24,1 km/h (4 Bft)
02.02.2010 22:30 2,4 C 90 % 996,0 hPa 0,3 mm 10,6 km/h (2 Bft) SW 235 0 min 0 UV-I 0 W/m 24,1 km/h (4 Bft)
02.02.2010 22:40 2,4 C 90 % 996,0 hPa 0,3 mm 7,9 km/h (2 Bft) SW 232 0 min 0 UV-I 0 W/m 19,3 km/h (3 Bft)
02.02.2010 22:50 2,4 C 91 % 996,1 hPa 0,3 mm 7,8 km/h (2 Bft) SW 222 0 min 0 UV-I 0 W/m 20,9 km/h (4 Bft)
02.02.2010 23:00 2,4 C 91 % 996,2 hPa 0,5 mm 6,9 km/h (2 Bft) W-NW 298 0 min 0 UV-I 0 W/m 19,3 km/h (3 Bft)
02.02.2010 23:10 2,3 C 91 % 996,4 hPa 0,8 mm 6,2 km/h (2 Bft) W 261 0 min 0 UV-I 0 W/m 25,7 km/h (4 Bft)
02.02.2010 23:20 2,2 C 90 % 996,8 hPa 0,3 mm 5,4 km/h (1 Bft) W-NW 294 0 min 0 UV-I 0 W/m 16,1 km/h (3 Bft)
02.02.2010 23:30 1,9 C 90 % 996,8 hPa 0,3 mm 4,8 km/h (1 Bft) W-NW 292 0 min 0 UV-I 0 W/m 16,1 km/h (3 Bft)
02.02.2010 23:40 1,6 C 90 % 997,4 hPa 0,3 mm 3,2 km/h (1 Bft) W-NW 292 0 min 0 UV-I 0 W/m 11,3 km/h (2 Bft)
02.02.2010 23:50 1,3 C 90 % 997,4 hPa 0,0 mm 1,6 km/h (1 Bft) NW 315 0 min 0 UV-I 0 W/m 9,7 km/h (2 Bft)
_ Min-Zeit 05:20 00:10 21:40 - 01:20 - - - - - 02:10
Minimum _ -3,3 C 74 % 995,9 hPa - 0,0 km/h (0 Bft) - - - - - 1,6 km/h (1 Bft)
_ Max-Zeit 13:10 22:50 02:50 23:10 16:40 - - 00:00 12:00 12:10 17:50
Maximum _ 2,9 C 91 % 1013,6 hPa 0,8 mm 14,5 km/h
SW (3 Bft)
- - 0 min 1 UV-I 167 W/m 37,0 km/h
W-SW (5 Bft)
Durchschnitt _ 0,5 C 82 % 1005,5 hPa #8,1 mm 6,7 km/h (2 Bft) SW - #0 min. 1 UV-I 80 W/m 19,3 km/h (3 Bft)